Hlavní strana
METAR-TAF:

METAR-TAF

Letiště :

Sinop, Turecko

zeměpisná šířka: 42-00-57N, zeměpisná délka: 035-03-59E, výška: 7 m

Aktuální stav počasí

Zpráva byla vytvořena před 8 hodinami a 55 minutami, v 16:50 UTC
Jihovýchodní vítr 4 kt
Teplota 20°C
Vlhkost vzduchu 78%
Tlak 1014 hPa
Viditelnost 10 km a více
Žádná oblačnost pod 1500 m, nevyskytují se cumulonimby.

METAR: LTCM 121650Z 13004KT CAVOK 20/16 Q1014

Čas: 04:45 (01:45 UTC)

Předpověď počasí

Zpráva byla vytvořena před 9 hodinami a 5 minutami, v 16:40 UTC
Předpověď platná od 12 v 18 UTC do 13 v 03 UTC
vítr z různých směrů 2 kt
Viditelnost 10 km a více
Skoro jasno ve výšce 3600 ft

TAF: LTCM 121640Z 1218/1303 VRB02KT 9999 FEW036

Stav a předpovědi počasí z více než 4 000 letišť (zprávy METAR a TAF).

Červené a žluté tečky na mapě představují dostupné meteorologické stanice.

Když kurzor umístíte na tečku, zobrazí se název stanice.

Pak kliknutím zobrazíte stav a předpověď počasí.

Chcete-li změnit mapu, kliknutím na zelené tlačítko se znaménkem +mapu přiblížíte, kliknutím na zelené tlačítko se znaménkem – mapu oddálíte a kliknutím na zelené šipky přejdete na sousední mapy.


METAR-TAF: